AKDT,Max TemperatureF,Mean TemperatureF,Min TemperatureF,Max Dew PointF,MeanDew PointF,Min DewpointF,Max Humidity, Mean Humidity, Min Humidity, Max Sea Level PressureIn, Mean Sea Level PressureIn, Min Sea Level PressureIn, Max VisibilityMiles, Mean VisibilityMiles, Min VisibilityMiles, Max Wind SpeedMPH, Mean Wind SpeedMPH, Max Gust SpeedMPH,PrecipitationIn, CloudCover, Events, WindDirDegrees
2013-5-1,50,39,30,32,27,23,79,60,42,29.75,29.61,29.54,10,10,10,8,3,,0.00,6,,349
2013-5-2,44,40,35,38,34,30,93,80,68,29.86,29.77,29.67,10,10,7,7,1,,0.13,8,Rain,249
2013-5-3,46,41,37,38,33,28,93,77,63,29.94,29.87,29.79,10,9,5,14,8,38,0.09,8,Rain,254
2013-5-4,43,38,30,34,30,25,92,81,60,29.97,29.83,29.77,10,6,1,16,3,24,0.17,7,Rain-Snow,252
2013-5-5,43,36,28,32,28,24,85,70,51,30.18,30.11,30.01,10,10,10,16,4,,0.00,1,,244
2013-5-6,44,36,28,30,26,21,82,64,42,30.27,30.23,30.18,10,10,10,15,4,,0.00,2,,262
2013-5-7,44,38,32,32,28,25,75,64,53,30.30,30.29,30.27,10,10,10,18,3,75,0.00,5,,245
2013-5-8,48,42,36,37,31,27,76,65,52,30.30,30.26,30.22,10,10,9,13,4,18,0.00,2,,246
2013-5-9,48,42,36,37,33,28,82,71,62,30.29,30.26,30.23,10,10,10,8,4,,0.00,5,,240
2013-5-10,55,43,33,39,33,28,82,69,41,30.23,30.09,29.96,10,10,10,13,2,,0.00,3,,233
2013-5-11,50,44,41,42,38,36,90,79,64,29.95,29.74,29.58,10,10,8,7,3,,0.06,8,Rain,193
2013-5-12,51,46,41,44,40,38,93,87,77,29.57,29.53,29.51,10,6,0,8,1,,0.05,8,Fog-Rain,246
2013-5-13,48,42,39,40,38,34,92,83,71,29.49,29.45,29.43,10,10,7,13,7,,0.05,7,Rain,249
2013-5-14,46,42,37,35,29,23,87,63,42,29.67,29.56,29.48,10,10,6,20,6,28,0.10,4,Rain,265
2013-5-15,48,38,28,29,26,18,85,58,34,29.75,29.72,29.68,10,10,10,13,4,21,0.00,4,Rain,88
2013-5-16,48,44,39,37,33,27,89,68,48,29.68,29.50,29.44,10,9,6,9,4,,0.13,8,Rain,360
2013-5-17,46,40,35,36,32,23,93,78,53,29.55,29.45,29.42,10,9,6,20,4,28,0.26,7,Rain,250
2013-5-18,44,38,32,28,20,9,85,53,27,30.19,29.83,29.57,10,9,2,15,9,20,0.00,6,Snow,313
2013-5-19,48,39,30,24,19,15,57,44,32,30.63,30.46,30.22,10,10,10,10,6,17,0.00,0,,249
2013-5-20,46,37,28,33,28,21,79,63,54,30.66,30.63,30.57,10,10,10,12,4,,0.00,1,,250
2013-5-21,52,46,39,35,33,29,79,61,48,30.56,30.43,30.27,10,10,10,7,3,,0.00,7,Rain,113
2013-5-22,50,46,43,41,38,34,80,72,61,30.27,30.18,30.14,10,10,10,7,2,,0.04,8,Rain,308
2013-5-23,52,46,42,42,40,38,87,80,71,30.16,30.15,30.13,10,10,10,10,4,,0.00,7,,238
2013-5-24,55,48,41,41,39,37,89,73,55,30.13,30.06,30.02,10,10,10,14,4,,0.00,4,,234
2013-5-25,59,47,37,41,37,33,86,66,47,30.02,29.97,29.93,10,10,10,14,5,,0.00,0,,229
2013-5-26,55,45,36,42,38,32,86,77,59,29.94,29.91,29.88,10,10,10,15,4,,0.00,4,,248
2013-5-27,57,48,42,41,39,38,89,72,53,29.90,29.86,29.81,10,10,10,16,4,,0.00,2,,255
2013-5-28,62,50,39,44,41,36,89,77,55,29.81,29.73,29.66,10,8,2,9,3,,0.00,3,,145
2013-5-29,62,52,45,44,41,40,83,64,47,29.78,29.71,29.67,10,10,10,17,6,,0.00,0,,239
2013-5-30,61,52,43,43,41,38,86,68,48,30.04,29.93,29.80,10,10,10,15,4,,0.00,1,,241
2013-5-31,55,47,41,44,42,37,86,76,67,30.18,30.12,30.05,10,10,5,20,5,,0.06,4,Rain,251